sensor_id;sensor_type;location;lat;lon;timestamp;P1;durP1;ratioP1;P2;durP2;ratioP2
40459;SDS011;26164;51.138;16.952;2023-09-19T00:00:59;5.15;;;1.90;;
40459;SDS011;26164;51.138;16.952;2023-09-19T00:03:38;8.45;;;2.10;;
40459;SDS011;26164;51.138;16.952;2023-09-19T00:06:05;11.30;;;2.33;;
40459;SDS011;26164;51.138;16.952;2023-09-19T00:08:35;4.13;;;1.80;;
40459;SDS011;26164;51.138;16.952;2023-09-19T00:11:01;4.15;;;1.85;;
40459;SDS011;26164;51.138;16.952;2023-09-19T00:13:36;6.18;;;1.70;;
40459;SDS011;26164;51.138;16.952;2023-09-19T00:16:10;4.78;;;2.28;;
40459;SDS011;26164;51.138;16.952;2023-09-19T00:18:37;4.07;;;1.63;;
40459;SDS011;26164;51.138;16.952;2023-09-19T00:21:03;4.13;;;1.60;;
40459;SDS011;26164;51.138;16.952;2023-09-19T00:23:47;4.78;;;1.27;;
40459;SDS011;26164;51.138;16.952;2023-09-19T00:26:14;4.90;;;1.52;;
40459;SDS011;26164;51.138;16.952;2023-09-19T00:28:42;6.05;;;1.50;;
40459;SDS011;26164;51.138;16.952;2023-09-19T00:31:09;2.90;;;1.40;;
40459;SDS011;26164;51.138;16.952;2023-09-19T00:33:35;2.83;;;1.33;;
40459;SDS011;26164;51.138;16.952;2023-09-19T00:36:03;2.92;;;1.23;;
40459;SDS011;26164;51.138;16.952;2023-09-19T00:38:36;5.03;;;1.40;;
40459;SDS011;26164;51.138;16.952;2023-09-19T00:41:04;4.90;;;1.42;;
40459;SDS011;26164;51.138;16.952;2023-09-19T00:43:32;8.68;;;1.70;;
40459;SDS011;26164;51.138;16.952;2023-09-19T00:46:01;6.70;;;1.50;;
40459;SDS011;26164;51.138;16.952;2023-09-19T00:48:28;5.07;;;1.30;;
40459;SDS011;26164;51.138;16.952;2023-09-19T00:51:10;2.80;;;1.20;;
40459;SDS011;26164;51.138;16.952;2023-09-19T00:53:36;4.68;;;1.10;;
40459;SDS011;26164;51.138;16.952;2023-09-19T00:56:02;4.60;;;1.30;;
40459;SDS011;26164;51.138;16.952;2023-09-19T00:58:29;3.30;;;1.48;;
40459;SDS011;26164;51.138;16.952;2023-09-19T01:01:01;5.22;;;1.25;;
40459;SDS011;26164;51.138;16.952;2023-09-19T01:03:34;3.78;;;1.35;;
40459;SDS011;26164;51.138;16.952;2023-09-19T01:06:01;5.28;;;1.85;;
40459;SDS011;26164;51.138;16.952;2023-09-19T01:08:27;7.07;;;2.00;;
40459;SDS011;26164;51.138;16.952;2023-09-19T01:10:58;4.00;;;1.55;;
40459;SDS011;26164;51.138;16.952;2023-09-19T01:16:12;5.15;;;1.90;;
40459;SDS011;26164;51.138;16.952;2023-09-19T01:18:46;5.28;;;1.50;;
40459;SDS011;26164;51.138;16.952;2023-09-19T01:21:30;7.78;;;1.60;;
40459;SDS011;26164;51.138;16.952;2023-09-19T01:24:10;6.35;;;1.80;;
40459;SDS011;26164;51.138;16.952;2023-09-19T01:31:59;7.63;;;2.20;;
40459;SDS011;26164;51.138;16.952;2023-09-19T01:34:48;5.40;;;2.08;;
40459;SDS011;26164;51.138;16.952;2023-09-19T01:37:18;6.93;;;2.35;;
40459;SDS011;26164;51.138;16.952;2023-09-19T01:40:34;10.80;;;2.38;;
40459;SDS011;26164;51.138;16.952;2023-09-19T01:43:41;5.35;;;1.83;;
40459;SDS011;26164;51.138;16.952;2023-09-19T01:46:30;8.27;;;2.13;;
40459;SDS011;26164;51.138;16.952;2023-09-19T01:49:25;7.47;;;2.42;;
40459;SDS011;26164;51.138;16.952;2023-09-19T01:51:56;6.78;;;2.50;;
40459;SDS011;26164;51.138;16.952;2023-09-19T01:54:41;5.13;;;2.10;;
40459;SDS011;26164;51.138;16.952;2023-09-19T01:57:16;6.28;;;2.10;;
40459;SDS011;26164;51.138;16.952;2023-09-19T01:59:45;5.25;;;1.90;;
40459;SDS011;26164;51.138;16.952;2023-09-19T02:02:11;6.82;;;2.28;;
40459;SDS011;26164;51.138;16.952;2023-09-19T02:04:37;6.72;;;2.10;;
40459;SDS011;26164;51.138;16.952;2023-09-19T02:07:04;5.28;;;1.90;;
40459;SDS011;26164;51.138;16.952;2023-09-19T02:09:34;5.70;;;1.90;;
40459;SDS011;26164;51.138;16.952;2023-09-19T02:12:04;6.53;;;1.90;;
40459;SDS011;26164;51.138;16.952;2023-09-19T02:14:30;8.68;;;2.33;;
40459;SDS011;26164;51.138;16.952;2023-09-19T02:16:58;6.47;;;2.00;;
40459;SDS011;26164;51.138;16.952;2023-09-19T02:19:25;6.05;;;1.70;;
40459;SDS011;26164;51.138;16.952;2023-09-19T02:21:51;5.47;;;1.67;;
40459;SDS011;26164;51.138;16.952;2023-09-19T02:24:20;4.78;;;1.83;;
40459;SDS011;26164;51.138;16.952;2023-09-19T02:26:47;8.50;;;1.88;;
40459;SDS011;26164;51.138;16.952;2023-09-19T02:29:12;7.28;;;2.00;;
40459;SDS011;26164;51.138;16.952;2023-09-19T02:31:39;5.65;;;2.10;;
40459;SDS011;26164;51.138;16.952;2023-09-19T02:34:07;7.07;;;2.10;;
40459;SDS011;26164;51.138;16.952;2023-09-19T02:36:35;6.43;;;1.95;;
40459;SDS011;26164;51.138;16.952;2023-09-19T02:39:01;8.20;;;2.38;;
40459;SDS011;26164;51.138;16.952;2023-09-19T02:41:27;6.35;;;2.42;;
40459;SDS011;26164;51.138;16.952;2023-09-19T02:43:55;6.72;;;2.45;;
40459;SDS011;26164;51.138;16.952;2023-09-19T02:46:22;9.75;;;2.53;;
40459;SDS011;26164;51.138;16.952;2023-09-19T02:48:48;10.90;;;2.50;;
40459;SDS011;26164;51.138;16.952;2023-09-19T02:51:14;10.13;;;2.78;;
40459;SDS011;26164;51.138;16.952;2023-09-19T02:53:40;7.50;;;2.70;;
40459;SDS011;26164;51.138;16.952;2023-09-19T02:56:06;8.43;;;3.25;;
40459;SDS011;26164;51.138;16.952;2023-09-19T02:58:32;9.60;;;2.95;;
40459;SDS011;26164;51.138;16.952;2023-09-19T03:01:08;6.40;;;2.78;;
40459;SDS011;26164;51.138;16.952;2023-09-19T03:03:34;11.43;;;3.25;;
40459;SDS011;26164;51.138;16.952;2023-09-19T03:06:00;10.32;;;3.22;;
40459;SDS011;26164;51.138;16.952;2023-09-19T03:08:29;8.88;;;4.20;;
40459;SDS011;26164;51.138;16.952;2023-09-19T03:10:57;9.85;;;4.40;;
40459;SDS011;26164;51.138;16.952;2023-09-19T03:13:23;9.32;;;4.38;;
40459;SDS011;26164;51.138;16.952;2023-09-19T03:15:50;11.63;;;4.45;;
40459;SDS011;26164;51.138;16.952;2023-09-19T03:18:19;9.45;;;3.90;;
40459;SDS011;26164;51.138;16.952;2023-09-19T03:20:53;9.52;;;4.28;;
40459;SDS011;26164;51.138;16.952;2023-09-19T03:23:21;9.23;;;3.88;;
40459;SDS011;26164;51.138;16.952;2023-09-19T03:25:48;10.25;;;3.83;;
40459;SDS011;26164;51.138;16.952;2023-09-19T03:28:13;10.57;;;3.70;;
40459;SDS011;26164;51.138;16.952;2023-09-19T03:30:42;10.10;;;3.90;;
40459;SDS011;26164;51.138;16.952;2023-09-19T03:33:08;13.77;;;3.75;;
40459;SDS011;26164;51.138;16.952;2023-09-19T03:35:40;6.63;;;3.25;;
40459;SDS011;26164;51.138;16.952;2023-09-19T03:38:06;9.40;;;3.60;;
40459;SDS011;26164;51.138;16.952;2023-09-19T03:40:32;8.00;;;3.47;;
40459;SDS011;26164;51.138;16.952;2023-09-19T03:43:00;12.45;;;3.78;;
40459;SDS011;26164;51.138;16.952;2023-09-19T03:45:26;14.88;;;11.05;;
40459;SDS011;26164;51.138;16.952;2023-09-19T03:47:53;15.43;;;9.88;;
40459;SDS011;26164;51.138;16.952;2023-09-19T03:50:21;28.58;;;18.83;;
40459;SDS011;26164;51.138;16.952;2023-09-19T03:52:47;22.33;;;17.98;;
40459;SDS011;26164;51.138;16.952;2023-09-19T03:55:13;27.77;;;24.13;;
40459;SDS011;26164;51.138;16.952;2023-09-19T03:57:40;49.03;;;43.70;;
40459;SDS011;26164;51.138;16.952;2023-09-19T04:00:06;58.38;;;46.17;;
40459;SDS011;26164;51.138;16.952;2023-09-19T04:02:39;45.42;;;40.40;;
40459;SDS011;26164;51.138;16.952;2023-09-19T04:05:07;45.38;;;39.00;;
40459;SDS011;26164;51.138;16.952;2023-09-19T04:07:33;50.78;;;45.33;;
40459;SDS011;26164;51.138;16.952;2023-09-19T04:10:00;48.58;;;42.10;;
40459;SDS011;26164;51.138;16.952;2023-09-19T04:12:27;51.38;;;45.88;;
40459;SDS011;26164;51.138;16.952;2023-09-19T04:14:55;54.83;;;48.60;;
40459;SDS011;26164;51.138;16.952;2023-09-19T04:17:21;28.17;;;20.55;;
40459;SDS011;26164;51.138;16.952;2023-09-19T04:19:47;15.90;;;10.48;;
40459;SDS011;26164;51.138;16.952;2023-09-19T04:22:13;10.73;;;5.90;;
40459;SDS011;26164;51.138;16.952;2023-09-19T04:24:42;18.90;;;5.88;;
40459;SDS011;26164;51.138;16.952;2023-09-19T04:27:08;14.60;;;5.55;;
40459;SDS011;26164;51.138;16.952;2023-09-19T04:29:35;11.57;;;5.05;;
40459;SDS011;26164;51.138;16.952;2023-09-19T04:32:03;11.93;;;4.90;;
40459;SDS011;26164;51.138;16.952;2023-09-19T04:34:31;12.32;;;4.75;;
40459;SDS011;26164;51.138;16.952;2023-09-19T04:36:57;29.17;;;20.88;;
40459;SDS011;26164;51.138;16.952;2023-09-19T04:39:26;22.58;;;15.65;;
40459;SDS011;26164;51.138;16.952;2023-09-19T04:41:52;18.30;;;9.75;;
40459;SDS011;26164;51.138;16.952;2023-09-19T04:44:19;10.57;;;5.85;;
40459;SDS011;26164;51.138;16.952;2023-09-19T04:46:45;10.35;;;4.30;;
40459;SDS011;26164;51.138;16.952;2023-09-19T04:49:14;9.65;;;5.13;;
40459;SDS011;26164;51.138;16.952;2023-09-19T04:51:39;11.13;;;6.13;;
40459;SDS011;26164;51.138;16.952;2023-09-19T04:54:06;9.82;;;4.40;;
40459;SDS011;26164;51.138;16.952;2023-09-19T04:56:32;8.25;;;3.80;;
40459;SDS011;26164;51.138;16.952;2023-09-19T04:58:58;9.15;;;3.83;;
40459;SDS011;26164;51.138;16.952;2023-09-19T05:01:24;8.55;;;2.85;;
40459;SDS011;26164;51.138;16.952;2023-09-19T05:03:50;14.27;;;3.10;;
40459;SDS011;26164;51.138;16.952;2023-09-19T05:06:19;8.88;;;2.80;;
40459;SDS011;26164;51.138;16.952;2023-09-19T05:08:49;7.82;;;2.80;;
40459;SDS011;26164;51.138;16.952;2023-09-19T05:11:18;6.18;;;2.42;;
40459;SDS011;26164;51.138;16.952;2023-09-19T05:13:45;9.40;;;3.25;;
40459;SDS011;26164;51.138;16.952;2023-09-19T05:16:12;7.15;;;2.60;;
40459;SDS011;26164;51.138;16.952;2023-09-19T05:18:41;8.70;;;3.00;;
40459;SDS011;26164;51.138;16.952;2023-09-19T05:21:07;8.35;;;3.00;;
40459;SDS011;26164;51.138;16.952;2023-09-19T05:23:34;10.77;;;3.60;;
40459;SDS011;26164;51.138;16.952;2023-09-19T05:26:02;8.50;;;3.63;;
40459;SDS011;26164;51.138;16.952;2023-09-19T05:28:29;10.40;;;3.85;;
40459;SDS011;26164;51.138;16.952;2023-09-19T05:30:55;11.25;;;3.85;;
40459;SDS011;26164;51.138;16.952;2023-09-19T05:33:21;17.35;;;4.03;;
40459;SDS011;26164;51.138;16.952;2023-09-19T05:35:50;9.77;;;3.58;;
40459;SDS011;26164;51.138;16.952;2023-09-19T05:38:17;13.35;;;3.85;;
40459;SDS011;26164;51.138;16.952;2023-09-19T05:40:45;11.45;;;3.88;;
40459;SDS011;26164;51.138;16.952;2023-09-19T05:43:11;9.70;;;3.28;;
40459;SDS011;26164;51.138;16.952;2023-09-19T05:45:38;13.10;;;3.67;;
40459;SDS011;26164;51.138;16.952;2023-09-19T05:48:19;15.43;;;3.35;;
40459;SDS011;26164;51.138;16.952;2023-09-19T05:50:48;16.20;;;3.53;;
40459;SDS011;26164;51.138;16.952;2023-09-19T05:53:17;18.50;;;3.05;;
40459;SDS011;26164;51.138;16.952;2023-09-19T05:55:44;16.98;;;3.33;;
40459;SDS011;26164;51.138;16.952;2023-09-19T05:58:12;13.38;;;3.15;;
40459;SDS011;26164;51.138;16.952;2023-09-19T06:00:49;21.73;;;3.90;;
40459;SDS011;26164;51.138;16.952;2023-09-19T06:03:15;16.05;;;3.28;;
40459;SDS011;26164;51.138;16.952;2023-09-19T06:05:44;13.05;;;2.83;;
40459;SDS011;26164;51.138;16.952;2023-09-19T06:08:11;13.00;;;3.80;;
40459;SDS011;26164;51.138;16.952;2023-09-19T06:10:38;10.43;;;2.90;;
40459;SDS011;26164;51.138;16.952;2023-09-19T06:13:05;13.02;;;3.00;;
40459;SDS011;26164;51.138;16.952;2023-09-19T06:15:32;11.00;;;2.88;;
40459;SDS011;26164;51.138;16.952;2023-09-19T06:17:59;15.93;;;2.90;;
40459;SDS011;26164;51.138;16.952;2023-09-19T06:20:32;13.52;;;3.05;;
40459;SDS011;26164;51.138;16.952;2023-09-19T06:22:58;16.80;;;3.08;;
40459;SDS011;26164;51.138;16.952;2023-09-19T06:27:58;12.30;;;3.00;;
40459;SDS011;26164;51.138;16.952;2023-09-19T06:30:25;12.05;;;3.17;;
40459;SDS011;26164;51.138;16.952;2023-09-19T06:32:56;8.65;;;3.05;;
40459;SDS011;26164;51.138;16.952;2023-09-19T06:35:38;11.70;;;3.72;;
40459;SDS011;26164;51.138;16.952;2023-09-19T06:38:22;8.82;;;3.05;;
40459;SDS011;26164;51.138;16.952;2023-09-19T06:41:08;12.95;;;3.22;;
40459;SDS011;26164;51.138;16.952;2023-09-19T06:43:45;10.55;;;3.20;;
40459;SDS011;26164;51.138;16.952;2023-09-19T06:46:25;7.70;;;3.25;;
40459;SDS011;26164;51.138;16.952;2023-09-19T06:49:23;10.25;;;5.00;;
40459;SDS011;26164;51.138;16.952;2023-09-19T06:51:50;11.40;;;4.88;;
40459;SDS011;26164;51.138;16.952;2023-09-19T06:54:16;14.77;;;6.75;;
40459;SDS011;26164;51.138;16.952;2023-09-19T06:56:44;15.82;;;9.13;;
40459;SDS011;26164;51.138;16.952;2023-09-19T06:59:12;20.85;;;9.63;;
40459;SDS011;26164;51.138;16.952;2023-09-19T07:01:42;17.05;;;9.07;;
40459;SDS011;26164;51.138;16.952;2023-09-19T07:04:10;16.55;;;7.82;;
40459;SDS011;26164;51.138;16.952;2023-09-19T07:06:51;11.90;;;5.32;;
40459;SDS011;26164;51.138;16.952;2023-09-19T07:09:32;15.35;;;5.32;;
40459;SDS011;26164;51.138;16.952;2023-09-19T07:12:04;10.38;;;3.97;;
40459;SDS011;26164;51.138;16.952;2023-09-19T07:14:30;11.30;;;3.35;;
40459;SDS011;26164;51.138;16.952;2023-09-19T07:17:11;7.13;;;2.53;;
40459;SDS011;26164;51.138;16.952;2023-09-19T07:19:38;10.63;;;2.40;;
40459;SDS011;26164;51.138;16.952;2023-09-19T07:22:05;4.88;;;1.60;;
40459;SDS011;26164;51.138;16.952;2023-09-19T07:24:49;7.97;;;1.48;;
40459;SDS011;26164;51.138;16.952;2023-09-19T07:27:22;3.17;;;1.55;;
40459;SDS011;26164;51.138;16.952;2023-09-19T07:29:47;5.05;;;2.00;;
40459;SDS011;26164;51.138;16.952;2023-09-19T07:32:29;5.65;;;1.77;;
40459;SDS011;26164;51.138;16.952;2023-09-19T07:34:56;5.97;;;1.70;;
40459;SDS011;26164;51.138;16.952;2023-09-19T07:37:21;6.78;;;1.92;;
40459;SDS011;26164;51.138;16.952;2023-09-19T07:39:48;6.38;;;2.05;;
40459;SDS011;26164;51.138;16.952;2023-09-19T07:42:40;8.90;;;1.60;;
40459;SDS011;26164;51.138;16.952;2023-09-19T07:45:24;6.35;;;1.75;;
40459;SDS011;26164;51.138;16.952;2023-09-19T07:47:52;5.28;;;1.42;;
40459;SDS011;26164;51.138;16.952;2023-09-19T07:50:19;2.90;;;1.30;;
40459;SDS011;26164;51.138;16.952;2023-09-19T07:53:00;2.83;;;1.50;;
40459;SDS011;26164;51.138;16.952;2023-09-19T07:58:33;3.75;;;1.30;;
40459;SDS011;26164;51.138;16.952;2023-09-19T08:01:06;7.03;;;1.23;;
40459;SDS011;26164;51.138;16.952;2023-09-19T08:03:33;3.22;;;1.67;;
40459;SDS011;26164;51.138;16.952;2023-09-19T08:06:16;8.02;;;1.55;;
40459;SDS011;26164;51.138;16.952;2023-09-19T08:08:46;2.90;;;1.20;;
40459;SDS011;26164;51.138;16.952;2023-09-19T08:11:12;3.35;;;1.30;;
40459;SDS011;26164;51.138;16.952;2023-09-19T08:13:44;2.85;;;1.40;;
40459;SDS011;26164;51.138;16.952;2023-09-19T08:16:11;2.72;;;1.27;;
40459;SDS011;26164;51.138;16.952;2023-09-19T08:18:52;4.00;;;1.45;;
40459;SDS011;26164;51.138;16.952;2023-09-19T08:21:22;7.88;;;2.20;;
40459;SDS011;26164;51.138;16.952;2023-09-19T08:23:51;3.22;;;1.65;;
40459;SDS011;26164;51.138;16.952;2023-09-19T08:26:33;7.35;;;1.58;;
40459;SDS011;26164;51.138;16.952;2023-09-19T08:29:00;6.13;;;1.50;;
40459;SDS011;26164;51.138;16.952;2023-09-19T08:31:31;4.22;;;1.40;;
40459;SDS011;26164;51.138;16.952;2023-09-19T08:33:57;2.33;;;1.20;;
40459;SDS011;26164;51.138;16.952;2023-09-19T08:36:26;4.20;;;1.65;;
40459;SDS011;26164;51.138;16.952;2023-09-19T08:39:06;3.25;;;1.20;;
40459;SDS011;26164;51.138;16.952;2023-09-19T08:41:47;5.88;;;1.10;;
40459;SDS011;26164;51.138;16.952;2023-09-19T08:44:25;3.15;;;1.10;;
40459;SDS011;26164;51.138;16.952;2023-09-19T08:46:53;4.85;;;1.40;;
40459;SDS011;26164;51.138;16.952;2023-09-19T08:49:27;3.08;;;1.75;;
40459;SDS011;26164;51.138;16.952;2023-09-19T08:52:10;7.38;;;1.40;;
40459;SDS011;26164;51.138;16.952;2023-09-19T08:54:42;5.05;;;1.50;;
40459;SDS011;26164;51.138;16.952;2023-09-19T08:57:09;2.75;;;1.20;;
40459;SDS011;26164;51.138;16.952;2023-09-19T08:59:51;8.65;;;1.35;;
40459;SDS011;26164;51.138;16.952;2023-09-19T09:02:33;4.10;;;1.08;;
40459;SDS011;26164;51.138;16.952;2023-09-19T09:05:07;5.43;;;0.98;;
40459;SDS011;26164;51.138;16.952;2023-09-19T09:07:35;1.75;;;0.90;;
40459;SDS011;26164;51.138;16.952;2023-09-19T09:10:06;6.43;;;1.20;;
40459;SDS011;26164;51.138;16.952;2023-09-19T09:12:32;2.25;;;1.10;;
40459;SDS011;26164;51.138;16.952;2023-09-19T09:15:02;6.80;;;1.25;;
40459;SDS011;26164;51.138;16.952;2023-09-19T09:17:29;3.80;;;1.10;;
40459;SDS011;26164;51.138;16.952;2023-09-19T09:20:10;3.67;;;1.02;;
40459;SDS011;26164;51.138;16.952;2023-09-19T09:22:36;3.40;;;1.25;;
40459;SDS011;26164;51.138;16.952;2023-09-19T09:25:05;2.85;;;1.10;;
40459;SDS011;26164;51.138;16.952;2023-09-19T09:27:46;3.47;;;1.20;;
40459;SDS011;26164;51.138;16.952;2023-09-19T09:30:33;3.17;;;1.27;;
40459;SDS011;26164;51.138;16.952;2023-09-19T09:38:26;2.83;;;0.90;;
40459;SDS011;26164;51.138;16.952;2023-09-19T09:41:06;6.20;;;1.23;;
40459;SDS011;26164;51.138;16.952;2023-09-19T09:43:32;4.13;;;1.10;;
40459;SDS011;26164;51.138;16.952;2023-09-19T09:51:42;5.93;;;1.13;;
40459;SDS011;26164;51.138;16.952;2023-09-19T09:54:12;4.05;;;1.20;;
40459;SDS011;26164;51.138;16.952;2023-09-19T09:59:11;3.17;;;1.13;;
40459;SDS011;26164;51.138;16.952;2023-09-19T10:02:05;2.72;;;1.10;;
40459;SDS011;26164;51.138;16.952;2023-09-19T10:04:32;7.20;;;1.30;;
40459;SDS011;26164;51.138;16.952;2023-09-19T10:07:22;5.35;;;1.02;;
40459;SDS011;26164;51.138;16.952;2023-09-19T10:10:04;3.67;;;0.90;;
40459;SDS011;26164;51.138;16.952;2023-09-19T10:12:48;3.13;;;0.87;;
40459;SDS011;26164;51.138;16.952;2023-09-19T10:15:15;5.45;;;1.20;;
40459;SDS011;26164;51.138;16.952;2023-09-19T10:17:43;3.03;;;0.90;;
40459;SDS011;26164;51.138;16.952;2023-09-19T10:20:12;1.60;;;0.77;;
40459;SDS011;26164;51.138;16.952;2023-09-19T10:22:50;3.78;;;1.00;;
40459;SDS011;26164;51.138;16.952;2023-09-19T10:25:25;1.90;;;0.90;;
40459;SDS011;26164;51.138;16.952;2023-09-19T10:27:51;4.22;;;1.20;;
40459;SDS011;26164;51.138;16.952;2023-09-19T10:30:21;3.20;;;1.13;;
40459;SDS011;26164;51.138;16.952;2023-09-19T10:32:49;5.57;;;1.05;;
40459;SDS011;26164;51.138;16.952;2023-09-19T10:35:25;2.80;;;1.00;;
40459;SDS011;26164;51.138;16.952;2023-09-19T10:37:54;3.90;;;1.10;;
40459;SDS011;26164;51.138;16.952;2023-09-19T10:40:22;3.58;;;1.25;;
40459;SDS011;26164;51.138;16.952;2023-09-19T10:45:27;3.58;;;0.88;;
40459;SDS011;26164;51.138;16.952;2023-09-19T10:47:59;4.88;;;0.70;;
40459;SDS011;26164;51.138;16.952;2023-09-19T10:50:29;3.28;;;0.80;;
40459;SDS011;26164;51.138;16.952;2023-09-19T10:52:59;3.50;;;1.02;;
40459;SDS011;26164;51.138;16.952;2023-09-19T10:55:31;3.67;;;0.80;;
40459;SDS011;26164;51.138;16.952;2023-09-19T10:57:58;3.05;;;0.80;;
40459;SDS011;26164;51.138;16.952;2023-09-19T11:00:56;4.47;;;1.27;;
40459;SDS011;26164;51.138;16.952;2023-09-19T11:03:25;3.15;;;1.13;;
40459;SDS011;26164;51.138;16.952;2023-09-19T11:22:58;6.40;;;0.82;;
40459;SDS011;26164;51.138;16.952;2023-09-19T11:30:37;1.40;;;0.70;;
40459;SDS011;26164;51.138;16.952;2023-09-19T11:33:18;5.75;;;0.95;;
40459;SDS011;26164;51.138;16.952;2023-09-19T11:36:01;1.80;;;0.70;;
40459;SDS011;26164;51.138;16.952;2023-09-19T11:43:44;5.97;;;1.35;;
40459;SDS011;26164;51.138;16.952;2023-09-19T11:46:11;3.67;;;0.73;;
40459;SDS011;26164;51.138;16.952;2023-09-19T11:48:48;1.77;;;0.50;;
40459;SDS011;26164;51.138;16.952;2023-09-19T11:51:20;2.95;;;0.70;;
40459;SDS011;26164;51.138;16.952;2023-09-19T11:53:53;1.63;;;0.50;;
40459;SDS011;26164;51.138;16.952;2023-09-19T11:56:23;3.05;;;0.80;;
40459;SDS011;26164;51.138;16.952;2023-09-19T11:58:54;1.23;;;0.50;;
40459;SDS011;26164;51.138;16.952;2023-09-19T12:01:23;2.20;;;0.50;;
40459;SDS011;26164;51.138;16.952;2023-09-19T12:03:54;4.75;;;0.80;;
40459;SDS011;26164;51.138;16.952;2023-09-19T12:06:23;3.78;;;0.73;;
40459;SDS011;26164;51.138;16.952;2023-09-19T12:08:49;2.67;;;0.70;;
40459;SDS011;26164;51.138;16.952;2023-09-19T12:11:18;1.75;;;0.65;;
40459;SDS011;26164;51.138;16.952;2023-09-19T12:13:46;3.00;;;0.70;;
40459;SDS011;26164;51.138;16.952;2023-09-19T12:16:19;1.58;;;0.90;;
40459;SDS011;26164;51.138;16.952;2023-09-19T12:18:50;4.15;;;1.20;;
40459;SDS011;26164;51.138;16.952;2023-09-19T12:21:23;2.05;;;0.95;;
40459;SDS011;26164;51.138;16.952;2023-09-19T12:24:12;2.10;;;0.70;;
40459;SDS011;26164;51.138;16.952;2023-09-19T12:27:00;1.70;;;0.63;;
40459;SDS011;26164;51.138;16.952;2023-09-19T12:29:29;3.78;;;1.00;;
40459;SDS011;26164;51.138;16.952;2023-09-19T12:31:57;4.10;;;0.90;;
40459;SDS011;26164;51.138;16.952;2023-09-19T12:34:33;2.03;;;0.70;;
40459;SDS011;26164;51.138;16.952;2023-09-19T12:37:13;7.60;;;0.70;;
40459;SDS011;26164;51.138;16.952;2023-09-19T12:39:53;2.30;;;0.70;;
40459;SDS011;26164;51.138;16.952;2023-09-19T12:42:39;3.30;;;0.65;;
40459;SDS011;26164;51.138;16.952;2023-09-19T12:45:08;5.20;;;0.80;;
40459;SDS011;26164;51.138;16.952;2023-09-19T12:47:35;3.88;;;0.77;;
40459;SDS011;26164;51.138;16.952;2023-09-19T12:50:08;2.78;;;0.77;;
40459;SDS011;26164;51.138;16.952;2023-09-19T12:52:42;2.90;;;0.70;;
40459;SDS011;26164;51.138;16.952;2023-09-19T12:55:19;2.70;;;0.70;;
40459;SDS011;26164;51.138;16.952;2023-09-19T12:57:54;3.17;;;0.60;;
40459;SDS011;26164;51.138;16.952;2023-09-19T13:00:37;1.90;;;0.65;;
40459;SDS011;26164;51.138;16.952;2023-09-19T13:05:52;1.90;;;0.50;;
40459;SDS011;26164;51.138;16.952;2023-09-19T13:08:23;1.92;;;0.80;;
40459;SDS011;26164;51.138;16.952;2023-09-19T13:11:05;3.15;;;0.80;;
40459;SDS011;26164;51.138;16.952;2023-09-19T13:16:13;1.63;;;0.63;;
40459;SDS011;26164;51.138;16.952;2023-09-19T13:18:45;2.92;;;0.60;;
40459;SDS011;26164;51.138;16.952;2023-09-19T13:21:33;5.25;;;0.52;;
40459;SDS011;26164;51.138;16.952;2023-09-19T13:24:24;2.58;;;0.55;;
40459;SDS011;26164;51.138;16.952;2023-09-19T13:26:58;3.38;;;0.55;;
40459;SDS011;26164;51.138;16.952;2023-09-19T13:29:26;2.85;;;0.90;;
40459;SDS011;26164;51.138;16.952;2023-09-19T13:31:57;1.90;;;0.70;;
40459;SDS011;26164;51.138;16.952;2023-09-19T13:34:24;2.30;;;0.60;;
40459;SDS011;26164;51.138;16.952;2023-09-19T13:39:36;1.35;;;0.50;;
40459;SDS011;26164;51.138;16.952;2023-09-19T13:42:03;1.45;;;0.60;;
40459;SDS011;26164;51.138;16.952;2023-09-19T13:44:32;2.47;;;0.50;;
40459;SDS011;26164;51.138;16.952;2023-09-19T13:46:58;3.83;;;0.60;;
40459;SDS011;26164;51.138;16.952;2023-09-19T13:49:43;4.47;;;0.70;;
40459;SDS011;26164;51.138;16.952;2023-09-19T13:52:29;3.60;;;0.70;;
40459;SDS011;26164;51.138;16.952;2023-09-19T13:55:11;9.23;;;0.98;;
40459;SDS011;26164;51.138;16.952;2023-09-19T13:57:55;2.75;;;0.70;;
40459;SDS011;26164;51.138;16.952;2023-09-19T14:00:36;1.73;;;0.70;;
40459;SDS011;26164;51.138;16.952;2023-09-19T14:03:17;4.25;;;1.10;;
40459;SDS011;26164;51.138;16.952;2023-09-19T14:05:46;2.40;;;0.68;;
40459;SDS011;26164;51.138;16.952;2023-09-19T14:08:13;1.70;;;0.52;;
40459;SDS011;26164;51.138;16.952;2023-09-19T14:10:55;3.55;;;0.80;;
40459;SDS011;26164;51.138;16.952;2023-09-19T14:13:36;2.55;;;0.73;;
40459;SDS011;26164;51.138;16.952;2023-09-19T14:16:07;4.80;;;0.63;;
40459;SDS011;26164;51.138;16.952;2023-09-19T14:18:34;3.45;;;0.60;;
40459;SDS011;26164;51.138;16.952;2023-09-19T14:21:03;3.55;;;0.68;;
40459;SDS011;26164;51.138;16.952;2023-09-19T14:23:39;1.23;;;0.50;;
40459;SDS011;26164;51.138;16.952;2023-09-19T14:26:11;1.85;;;0.60;;
40459;SDS011;26164;51.138;16.952;2023-09-19T14:28:38;2.05;;;0.70;;
40459;SDS011;26164;51.138;16.952;2023-09-19T14:31:09;2.60;;;0.63;;
40459;SDS011;26164;51.138;16.952;2023-09-19T14:33:35;2.22;;;0.60;;
40459;SDS011;26164;51.138;16.952;2023-09-19T14:36:06;4.53;;;0.82;;
40459;SDS011;26164;51.138;16.952;2023-09-19T14:38:35;2.10;;;0.85;;
40459;SDS011;26164;51.138;16.952;2023-09-19T14:41:09;1.35;;;0.55;;
40459;SDS011;26164;51.138;16.952;2023-09-19T14:43:36;2.35;;;0.50;;
40459;SDS011;26164;51.138;16.952;2023-09-19T14:46:03;4.63;;;0.90;;
40459;SDS011;26164;51.138;16.952;2023-09-19T14:48:30;4.13;;;0.88;;
40459;SDS011;26164;51.138;16.952;2023-09-19T14:51:01;2.95;;;0.65;;
40459;SDS011;26164;51.138;16.952;2023-09-19T14:53:28;1.45;;;0.47;;
40459;SDS011;26164;51.138;16.952;2023-09-19T14:55:54;2.90;;;0.70;;
40459;SDS011;26164;51.138;16.952;2023-09-19T14:58:20;2.45;;;0.55;;
40459;SDS011;26164;51.138;16.952;2023-09-19T15:01:08;3.08;;;0.68;;
40459;SDS011;26164;51.138;16.952;2023-09-19T15:03:52;2.05;;;0.60;;
40459;SDS011;26164;51.138;16.952;2023-09-19T15:06:24;2.50;;;0.60;;
40459;SDS011;26164;51.138;16.952;2023-09-19T15:08:58;3.45;;;0.68;;
40459;SDS011;26164;51.138;16.952;2023-09-19T15:11:25;1.33;;;0.63;;
40459;SDS011;26164;51.138;16.952;2023-09-19T15:13:52;2.88;;;0.63;;
40459;SDS011;26164;51.138;16.952;2023-09-19T15:16:22;3.50;;;0.68;;
40459;SDS011;26164;51.138;16.952;2023-09-19T15:18:52;1.63;;;0.73;;
40459;SDS011;26164;51.138;16.952;2023-09-19T15:21:22;1.85;;;0.60;;
40459;SDS011;26164;51.138;16.952;2023-09-19T15:24:06;4.75;;;0.70;;
40459;SDS011;26164;51.138;16.952;2023-09-19T15:27:13;2.55;;;0.60;;
40459;SDS011;26164;51.138;16.952;2023-09-19T15:30:05;1.88;;;0.70;;
40459;SDS011;26164;51.138;16.952;2023-09-19T15:32:50;2.38;;;0.80;;
40459;SDS011;26164;51.138;16.952;2023-09-19T15:35:21;5.22;;;0.60;;
40459;SDS011;26164;51.138;16.952;2023-09-19T15:37:53;2.90;;;0.80;;
40459;SDS011;26164;51.138;16.952;2023-09-19T15:40:37;1.77;;;0.40;;
40459;SDS011;26164;51.138;16.952;2023-09-19T15:43:35;3.63;;;0.70;;
40459;SDS011;26164;51.138;16.952;2023-09-19T15:46:18;2.15;;;0.75;;
40459;SDS011;26164;51.138;16.952;2023-09-19T15:49:01;2.25;;;0.68;;
40459;SDS011;26164;51.138;16.952;2023-09-19T15:52:05;2.58;;;0.50;;
40459;SDS011;26164;51.138;16.952;2023-09-19T15:54:51;3.58;;;0.40;;
40459;SDS011;26164;51.138;16.952;2023-09-19T15:57:39;2.63;;;0.60;;
40459;SDS011;26164;51.138;16.952;2023-09-19T16:00:34;2.63;;;0.55;;
40459;SDS011;26164;51.138;16.952;2023-09-19T16:03:03;2.17;;;0.50;;
40459;SDS011;26164;51.138;16.952;2023-09-19T16:20:30;2.97;;;0.63;;